Time;durP1;ratioP1;P1;durP2;ratioP2;P2;SDS_P1;SDS_P2;PMS_P1;PMS_P2;Temp;Humidity;BMP_temperature;BMP_pressure;BME280_temperature;BME280_humidity;BME280_pressure;Samples;Min_cycle;Max_cycle;Signal;HPM_P1;HPM_P2
2023/06/05 00:00:42;;;;;;;3.83;1.42;;;13.10;99.90;;;;;;5084324;28;20051;-70
2023/06/05 00:03:07;;;;;;;2.60;1.10;;;13.10;99.90;;;;;;5087802;28;20140;-69
2023/06/05 00:05:33;;;;;;;2.15;1.42;;;13.10;99.90;;;;;;5086899;28;20506;-68
2023/06/05 00:07:58;;;;;;;2.85;1.23;;;13.10;99.90;;;;;;5087247;28;20157;-67
2023/06/05 00:10:24;;;;;;;4.10;1.10;;;13.00;99.90;;;;;;5086976;28;20495;-70
2023/06/05 00:12:50;;;;;;;1.52;0.90;;;13.00;99.90;;;;;;5086946;28;20124;-68
2023/06/05 00:15:15;;;;;;;2.08;1.25;;;13.00;99.90;;;;;;5085590;28;20039;-67
2023/06/05 00:17:41;;;;;;;2.92;1.38;;;13.00;99.90;;;;;;5086444;28;20119;-69
2023/06/05 00:20:09;;;;;;;1.73;0.93;;;13.00;99.90;;;;;;5086636;28;20392;-68
2023/06/05 00:22:35;;;;;;;2.33;1.10;;;13.00;99.90;;;;;;5086617;28;20044;-70
2023/06/05 00:25:01;;;;;;;3.55;1.58;;;13.00;99.90;;;;;;5087184;28;20036;-67
2023/06/05 00:27:28;;;;;;;2.80;1.48;;;13.00;99.90;;;;;;5119838;27;20503;-67
2023/06/05 00:29:53;;;;;;;1.60;1.38;;;13.00;99.90;;;;;;5086450;28;20036;-68
2023/06/05 00:32:19;;;;;;;2.17;1.27;;;13.00;99.90;;;;;;5119121;27;20050;-68
2023/06/05 00:34:46;;;;;;;2.47;1.67;;;13.00;99.90;;;;;;5085832;28;20048;-68
2023/06/05 00:37:13;;;;;;;2.25;1.23;;;13.00;99.90;;;;;;5086634;28;20047;-71
2023/06/05 00:39:40;;;;;;;3.08;1.05;;;13.00;99.90;;;;;;5087270;28;20044;-68
2023/06/05 00:42:07;;;;;;;2.63;1.75;;;13.00;99.90;;;;;;5086432;28;20084;-67
2023/06/05 00:44:33;;;;;;;1.90;1.50;;;12.90;99.90;;;;;;5085813;28;20048;-69
2023/06/05 00:46:59;;;;;;;2.42;1.23;;;13.00;99.90;;;;;;5119776;28;20052;-68
2023/06/05 00:49:25;;;;;;;2.03;1.20;;;12.90;99.90;;;;;;5086492;28;20048;-70
2023/06/05 00:51:51;;;;;;;2.85;1.45;;;12.90;99.90;;;;;;5086750;28;20048;-68
2023/06/05 00:54:17;;;;;;;1.58;1.27;;;12.90;99.90;;;;;;5086402;28;20448;-68
2023/06/05 00:56:43;;;;;;;4.70;1.33;;;13.00;99.90;;;;;;5086646;28;20036;-68
2023/06/05 00:59:09;;;;;;;2.72;1.20;;;12.90;99.90;;;;;;5086425;28;20469;-68
2023/06/05 01:01:36;;;;;;;2.00;1.02;;;12.90;99.90;;;;;;5086269;28;20044;-68
2023/06/05 01:04:01;;;;;;;1.33;1.00;;;12.90;99.90;;;;;;5086666;28;20044;-69
2023/06/05 01:06:28;;;;;;;2.17;1.00;;;12.90;99.90;;;;;;5085388;28;20446;-68
2023/06/05 01:08:56;;;;;;;1.55;1.00;;;12.90;99.90;;;;;;5086591;28;20088;-68
2023/06/05 01:11:36;;;;;;;2.65;1.55;;;12.90;99.90;;;;;;5086109;28;20067;-68
2023/06/05 01:14:17;;;;;;;1.83;0.98;;;12.90;99.90;;;;;;5083424;28;20178;-69
2023/06/05 01:16:53;;;;;;;1.85;1.15;;;12.90;99.90;;;;;;5090558;28;20083;-67
2023/06/05 01:19:28;;;;;;;0.90;0.90;;;12.80;99.90;;;;;;5090003;28;20059;-68
2023/06/05 01:21:55;;;;;;;1.00;0.90;;;12.80;99.90;;;;;;5090319;28;20048;-70
2023/06/05 01:24:25;;;;;;;0.88;0.60;;;12.90;99.90;;;;;;5122896;27;20044;-68
2023/06/05 01:27:11;;;;;;;1.65;0.70;;;12.80;99.90;;;;;;5090206;28;20047;-68
2023/06/05 01:29:43;;;;;;;1.45;0.85;;;12.80;99.90;;;;;;5089562;28;20040;-68
2023/06/05 01:32:18;;;;;;;0.63;0.60;;;12.80;99.90;;;;;;5090357;28;21352;-69
2023/06/05 01:53:12;;;;;;;1.35;0.90;;;12.80;99.90;;;;;;4183102;28;20075;-68
2023/06/05 01:55:38;;;;;;;1.25;1.00;;;12.80;99.90;;;;;;5089675;28;20075;-68
2023/06/05 01:58:05;;;;;;;1.65;1.02;;;12.80;99.90;;;;;;5089534;28;20442;-70
2023/06/05 02:00:30;;;;;;;0.95;0.70;;;12.80;99.90;;;;;;5087577;28;20913;-67
2023/06/05 02:02:56;;;;;;;1.38;1.02;;;12.70;99.90;;;;;;5089137;28;20083;-69
2023/06/05 02:05:22;;;;;;;1.98;0.93;;;12.70;99.90;;;;;;5089727;28;20133;-68
2023/06/05 02:07:53;;;;;;;1.33;0.80;;;12.80;99.90;;;;;;5089356;28;20117;-68
2023/06/05 02:10:19;;;;;;;1.20;0.80;;;12.70;99.90;;;;;;5116212;27;20051;-68
2023/06/05 02:12:45;;;;;;;1.95;0.80;;;12.70;99.90;;;;;;5080723;28;20051;-68
2023/06/05 02:15:12;;;;;;;1.38;0.80;;;12.70;99.90;;;;;;5088771;28;20598;-68
2023/06/05 02:17:39;;;;;;;1.88;1.05;;;12.70;99.90;;;;;;5089110;28;20519;-68
2023/06/05 02:20:05;;;;;;;1.10;0.77;;;12.70;99.90;;;;;;5089113;28;20043;-70
2023/06/05 02:22:31;;;;;;;1.88;0.85;;;12.70;99.90;;;;;;5089024;28;20043;-68
2023/06/05 02:24:57;;;;;;;1.00;0.82;;;12.70;99.90;;;;;;5088781;28;20044;-69
2023/06/05 02:27:24;;;;;;;0.88;0.80;;;12.60;99.90;;;;;;5088040;28;20377;-68
2023/06/05 02:29:50;;;;;;;1.73;0.80;;;12.60;99.90;;;;;;5088026;28;20381;-68
2023/06/05 02:32:15;;;;;;;1.45;0.93;;;12.70;99.90;;;;;;5088599;28;20133;-68
2023/06/05 02:34:41;;;;;;;1.30;1.00;;;12.60;99.90;;;;;;5087371;28;20081;-69
2023/06/05 02:37:08;;;;;;;1.10;0.90;;;12.70;99.90;;;;;;5089081;28;20051;-68
2023/06/05 02:39:34;;;;;;;2.83;0.95;;;12.70;99.90;;;;;;5087261;28;20044;-69
2023/06/05 02:41:59;;;;;;;1.25;0.57;;;12.60;99.90;;;;;;5088595;28;20460;-67
2023/06/05 02:44:25;;;;;;;1.23;0.80;;;12.60;99.90;;;;;;5087915;28;20113;-67
2023/06/05 02:46:51;;;;;;;2.17;1.10;;;12.70;99.90;;;;;;5088988;28;20119;-67
2023/06/05 02:49:17;;;;;;;0.90;0.90;;;12.70;99.90;;;;;;5119187;27;20130;-67
2023/06/05 02:51:42;;;;;;;1.80;0.93;;;12.70;99.90;;;;;;5088432;28;20543;-70
2023/06/05 02:54:08;;;;;;;1.80;1.27;;;12.70;99.90;;;;;;5088750;28;20048;-67
2023/06/05 02:56:34;;;;;;;2.30;1.05;;;12.70;99.90;;;;;;5086998;28;20113;-68
2023/06/05 02:59:03;;;;;;;2.72;1.20;;;12.70;99.90;;;;;;5087597;28;20036;-68
2023/06/05 03:01:34;;;;;;;2.15;1.40;;;12.70;99.90;;;;;;5087960;28;20036;-68
2023/06/05 03:04:03;;;;;;;3.38;1.75;;;12.70;99.90;;;;;;5088200;28;20048;-67
2023/06/05 03:06:33;;;;;;;4.28;2.15;;;12.70;99.90;;;;;;5088027;28;20052;-69
2023/06/05 03:08:59;;;;;;;2.17;1.50;;;12.70;99.90;;;;;;5088378;28;20105;-69
2023/06/05 03:11:26;;;;;;;3.20;2.30;;;12.70;99.90;;;;;;5088446;28;20093;-67
2023/06/05 03:13:52;;;;;;;3.83;1.95;;;12.60;99.90;;;;;;5087094;28;20044;-68
2023/06/05 03:16:18;;;;;;;3.40;2.10;;;12.60;99.90;;;;;;5088027;28;20122;-67
2023/06/05 03:18:45;;;;;;;4.00;2.20;;;12.60;99.90;;;;;;5088116;28;20042;-67
2023/06/05 03:21:11;;;;;;;4.63;2.22;;;12.60;99.90;;;;;;5087824;28;20051;-68
2023/06/05 03:23:37;;;;;;;3.17;2.00;;;12.70;99.90;;;;;;5088046;28;20032;-69
2023/06/05 03:26:03;;;;;;;5.18;2.95;;;12.70;99.90;;;;;;5086675;28;20039;-70
2023/06/05 03:28:30;;;;;;;3.08;1.80;;;12.60;99.90;;;;;;5086513;28;20044;-69
2023/06/05 03:30:56;;;;;;;3.08;1.95;;;12.70;99.90;;;;;;5088037;28;20047;-67
2023/06/05 03:33:22;;;;;;;3.70;2.13;;;12.60;99.90;;;;;;5087407;28;20044;-67
2023/06/05 03:35:48;;;;;;;3.40;2.15;;;12.60;99.90;;;;;;5087053;28;20068;-68
2023/06/05 03:38:15;;;;;;;4.03;2.67;;;12.60;99.90;;;;;;5087752;28;20530;-67
2023/06/05 03:40:41;;;;;;;4.15;2.20;;;12.60;99.90;;;;;;5087642;28;20040;-67
2023/06/05 03:43:07;;;;;;;2.85;1.70;;;12.60;99.90;;;;;;5087501;28;20036;-67
2023/06/05 03:45:34;;;;;;;3.22;1.30;;;12.60;99.90;;;;;;5086335;28;20051;-67
2023/06/05 03:48:00;;;;;;;1.92;1.50;;;12.60;99.90;;;;;;5087706;28;20090;-68
2023/06/05 03:50:29;;;;;;;2.00;1.20;;;12.60;99.90;;;;;;5087356;28;20036;-67
2023/06/05 03:53:02;;;;;;;2.90;1.65;;;12.60;99.90;;;;;;5087635;28;20133;-71
2023/06/05 03:55:37;;;;;;;2.60;1.48;;;12.60;99.90;;;;;;5087565;28;20101;-71
2023/06/05 03:58:03;;;;;;;3.33;1.30;;;12.60;99.90;;;;;;5087477;28;20036;-68
2023/06/05 04:00:28;;;;;;;1.67;1.45;;;12.50;99.90;;;;;;5085078;28;20455;-68
2023/06/05 04:02:55;;;;;;;2.70;1.60;;;12.50;99.90;;;;;;5087407;28;20068;-69
2023/06/05 04:05:21;;;;;;;3.20;1.35;;;12.50;99.90;;;;;;5085525;28;20547;-68
2023/06/05 04:07:46;;;;;;;2.17;1.48;;;12.50;99.90;;;;;;5087322;28;20120;-69
2023/06/05 04:10:12;;;;;;;3.30;1.58;;;12.60;99.90;;;;;;5086872;28;20036;-69
2023/06/05 04:12:39;;;;;;;2.65;1.52;;;12.60;99.90;;;;;;5086911;28;20048;-69
2023/06/05 04:15:05;;;;;;;3.25;1.63;;;12.60;99.90;;;;;;5086525;28;20054;-67
2023/06/05 04:17:30;;;;;;;6.68;1.77;;;12.60;99.90;;;;;;5086790;28;20498;-71
2023/06/05 04:19:56;;;;;;;1.55;1.30;;;12.60;99.90;;;;;;5086243;28;20047;-68
2023/06/05 04:22:21;;;;;;;2.75;1.55;;;12.60;99.90;;;;;;5086515;28;20501;-67
2023/06/05 04:24:47;;;;;;;3.38;1.27;;;12.60;99.90;;;;;;5087012;28;20058;-68
2023/06/05 04:27:14;;;;;;;1.83;0.90;;;12.60;99.90;;;;;;5085223;28;20052;-68
2023/06/05 04:29:40;;;;;;;1.38;1.27;;;12.60;99.90;;;;;;5086209;28;20407;-68
2023/06/05 04:32:07;;;;;;;1.63;1.20;;;12.60;99.90;;;;;;5086758;28;20071;-70
2023/06/05 04:34:32;;;;;;;3.67;1.42;;;12.60;99.90;;;;;;5086564;28;20133;-68
2023/06/05 04:36:58;;;;;;;1.27;0.88;;;12.60;99.90;;;;;;5087405;28;20101;-68
2023/06/05 04:39:24;;;;;;;1.00;0.80;;;12.60;99.90;;;;;;5086501;28;20040;-69
2023/06/05 04:41:50;;;;;;;1.55;1.30;;;12.60;99.90;;;;;;5086599;28;20480;-68
2023/06/05 04:44:16;;;;;;;1.10;0.90;;;12.60;99.90;;;;;;5085950;28;20047;-68
2023/06/05 04:46:43;;;;;;;2.13;0.73;;;12.60;99.90;;;;;;5087212;28;20094;-68
2023/06/05 04:49:13;;;;;;;1.42;1.15;;;12.60;99.90;;;;;;5124014;27;20412;-69
2023/06/05 04:51:40;;;;;;;0.68;0.50;;;12.60;99.90;;;;;;5090596;28;20125;-69
2023/06/05 04:54:05;;;;;;;1.45;0.95;;;12.60;99.90;;;;;;5123877;27;20586;-68
2023/06/05 04:56:34;;;;;;;4.28;0.80;;;12.70;99.90;;;;;;5090641;28;20151;-71
2023/06/05 04:59:02;;;;;;;2.78;1.10;;;12.60;99.90;;;;;;5088937;28;20476;-69
2023/06/05 05:01:28;;;;;;;1.88;0.80;;;12.70;99.90;;;;;;5090723;28;20718;-68
2023/06/05 05:03:54;;;;;;;1.45;1.20;;;12.70;99.90;;;;;;5090202;28;20119;-67
2023/06/05 05:06:21;;;;;;;2.20;1.00;;;12.70;99.90;;;;;;5111709;27;20050;-68
2023/06/05 05:08:50;;;;;;;1.55;0.70;;;12.70;99.90;;;;;;5090617;28;20044;-71
2023/06/05 05:11:16;;;;;;;1.70;0.88;;;12.70;99.90;;;;;;5117804;27;20040;-70
2023/06/05 05:13:42;;;;;;;1.55;1.00;;;12.70;99.90;;;;;;5122809;27;20063;-70
2023/06/05 05:16:08;;;;;;;2.50;0.80;;;12.80;99.90;;;;;;5089872;28;20067;-70
2023/06/05 05:18:34;;;;;;;1.10;0.75;;;12.80;99.90;;;;;;5089708;28;20721;-70
2023/06/05 05:21:02;;;;;;;1.98;0.95;;;12.80;99.90;;;;;;5088829;28;20036;-70
2023/06/05 05:23:27;;;;;;;1.17;0.98;;;12.80;99.90;;;;;;5090339;28;20642;-70
2023/06/05 05:25:54;;;;;;;1.80;0.90;;;12.80;99.90;;;;;;5090291;28;20067;-69
2023/06/05 05:28:19;;;;;;;1.42;0.90;;;12.80;99.90;;;;;;5088976;28;20054;-70
2023/06/05 05:30:45;;;;;;;1.15;0.80;;;12.80;99.90;;;;;;5090042;28;20043;-70
2023/06/05 05:33:11;;;;;;;1.75;1.05;;;12.80;99.90;;;;;;5089000;28;20048;-72
2023/06/05 05:35:36;;;;;;;1.55;1.00;;;12.80;99.90;;;;;;5089741;28;20040;-70
2023/06/05 05:38:02;;;;;;;1.48;1.20;;;12.90;99.90;;;;;;5090494;28;20071;-69
2023/06/05 05:40:27;;;;;;;1.88;1.33;;;12.90;99.90;;;;;;5070936;28;20036;-70
2023/06/05 05:42:53;;;;;;;1.23;0.90;;;12.80;99.90;;;;;;5113471;27;20075;-70
2023/06/05 05:45:18;;;;;;;0.90;0.88;;;12.80;99.90;;;;;;5087222;28;20178;-71
2023/06/05 05:47:44;;;;;;;2.90;0.85;;;12.90;99.90;;;;;;5077293;28;20036;-71
2023/06/05 05:50:10;;;;;;;3.08;1.00;;;12.90;99.90;;;;;;5089263;28;20076;-72
2023/06/05 05:52:35;;;;;;;1.13;1.05;;;12.90;99.90;;;;;;5088078;28;20059;-71
2023/06/05 05:55:03;;;;;;;2.20;0.88;;;12.90;99.90;;;;;;5089859;28;20047;-69
2023/06/05 05:57:29;;;;;;;3.15;1.45;;;12.90;99.90;;;;;;5079712;28;20049;-70
2023/06/05 05:59:55;;;;;;;7.70;1.30;;;12.80;99.90;;;;;;5080727;28;20496;-70
2023/06/05 06:02:21;;;;;;;6.93;1.73;;;12.90;99.90;;;;;;5090455;28;20036;-70
2023/06/05 06:04:47;;;;;;;1.27;1.17;;;12.90;99.90;;;;;;5089188;28;20105;-70
2023/06/05 06:07:13;;;;;;;1.85;1.10;;;12.90;99.90;;;;;;5088992;28;20036;-70
2023/06/05 06:09:39;;;;;;;4.07;2.38;;;12.90;99.90;;;;;;5089454;28;20388;-70
2023/06/05 06:12:07;;;;;;;1.48;1.00;;;12.90;99.90;;;;;;5089575;28;20047;-71
2023/06/05 06:14:33;;;;;;;3.15;1.23;;;13.00;99.90;;;;;;5088580;28;20553;-71
2023/06/05 06:16:59;;;;;;;3.78;1.58;;;13.00;99.90;;;;;;5088983;28;20048;-70
2023/06/05 06:19:27;;;;;;;13.07;3.35;;;13.00;99.90;;;;;;5087436;28;20457;-69
2023/06/05 06:21:55;;;;;;;23.83;3.63;;;13.00;99.90;;;;;;5109861;27;20105;-69
2023/06/05 06:24:22;;;;;;;11.50;2.67;;;13.00;99.90;;;;;;5119989;27;20046;-71
2023/06/05 06:26:48;;;;;;;4.20;2.22;;;13.00;99.90;;;;;;5084751;28;20044;-71
2023/06/05 06:29:18;;;;;;;3.10;1.80;;;13.00;99.90;;;;;;5087099;28;20040;-70
2023/06/05 06:31:44;;;;;;;3.40;1.73;;;13.00;99.90;;;;;;5087299;28;20050;-71
2023/06/05 06:34:10;;;;;;;2.58;1.70;;;13.00;99.90;;;;;;5088011;28;20044;-71
2023/06/05 06:36:40;;;;;;;4.95;1.55;;;13.00;99.90;;;;;;5088717;28;20047;-70
2023/06/05 06:39:07;;;;;;;3.40;1.92;;;13.00;99.90;;;;;;5088716;28;20051;-71
2023/06/05 06:41:34;;;;;;;3.63;1.95;;;13.10;99.90;;;;;;5088460;28;20055;-71
2023/06/05 06:44:00;;;;;;;2.60;1.40;;;13.00;99.90;;;;;;5087592;28;20051;-71
2023/06/05 06:46:26;;;;;;;2.85;1.65;;;13.00;99.90;;;;;;5086639;28;20283;-70
2023/06/05 06:48:52;;;;;;;2.60;1.30;;;13.10;99.90;;;;;;5070122;28;20048;-70
2023/06/05 06:51:17;;;;;;;2.65;1.65;;;13.10;99.90;;;;;;5071003;28;20069;-70
2023/06/05 06:53:44;;;;;;;4.05;1.60;;;13.10;99.90;;;;;;5087351;28;20047;-69
2023/06/05 06:56:10;;;;;;;3.72;1.35;;;13.10;99.90;;;;;;5087852;28;20051;-70
2023/06/05 06:58:36;;;;;;;1.48;1.35;;;13.20;99.90;;;;;;5087363;28;20058;-70
2023/06/05 07:01:03;;;;;;;3.53;1.73;;;13.20;99.90;;;;;;5087539;28;20041;-70
2023/06/05 07:03:28;;;;;;;2.70;1.60;;;13.30;99.90;;;;;;5087449;28;20047;-71
2023/06/05 07:05:54;;;;;;;2.67;1.67;;;13.40;99.90;;;;;;5086835;28;20055;-70
2023/06/05 07:08:19;;;;;;;2.67;1.83;;;13.40;99.90;;;;;;5087336;28;20090;-70
2023/06/05 07:10:45;;;;;;;3.33;1.50;;;13.40;99.90;;;;;;5086497;28;20040;-71
2023/06/05 07:13:11;;;;;;;3.00;1.70;;;13.40;99.90;;;;;;5087001;28;20047;-72
2023/06/05 07:15:37;;;;;;;2.65;1.88;;;13.40;99.90;;;;;;5087018;28;20104;-70
2023/06/05 07:18:03;;;;;;;2.97;1.75;;;13.40;99.90;;;;;;5090821;28;20099;-70
2023/06/05 07:20:28;;;;;;;3.35;1.55;;;13.40;99.90;;;;;;5087317;28;20051;-70
2023/06/05 07:22:54;;;;;;;3.08;1.67;;;13.40;99.90;;;;;;5085854;28;20048;-70
2023/06/05 07:25:20;;;;;;;3.97;1.52;;;13.40;99.90;;;;;;5091907;28;20241;-70
2023/06/05 07:27:46;;;;;;;4.13;1.33;;;13.40;99.90;;;;;;5091876;28;20052;-70
2023/06/05 07:30:15;;;;;;;2.20;1.05;;;13.40;99.90;;;;;;5085615;28;20043;-72
2023/06/05 07:32:42;;;;;;;2.90;1.38;;;13.50;99.90;;;;;;5087787;28;20040;-70
2023/06/05 07:35:08;;;;;;;2.05;1.65;;;13.50;99.90;;;;;;5086702;28;20048;-70
2023/06/05 07:37:35;;;;;;;3.88;1.65;;;13.50;99.90;;;;;;5115258;27;20039;-70
2023/06/05 07:40:01;;;;;;;4.93;1.45;;;13.50;99.90;;;;;;5084788;28;20040;-69
2023/06/05 07:42:26;;;;;;;2.38;1.40;;;13.60;99.90;;;;;;5085512;28;20051;-72
2023/06/05 07:44:52;;;;;;;2.53;1.35;;;13.60;99.90;;;;;;5114672;27;20044;-69
2023/06/05 07:47:17;;;;;;;2.85;1.30;;;13.70;99.90;;;;;;5087073;28;20077;-69
2023/06/05 07:49:43;;;;;;;2.42;1.33;;;13.70;99.90;;;;;;5087297;28;20451;-69
2023/06/05 07:52:09;;;;;;;1.75;1.05;;;13.80;99.90;;;;;;5087479;28;20052;-70
2023/06/05 07:54:34;;;;;;;4.15;1.67;;;13.80;99.90;;;;;;5116025;27;20040;-70
2023/06/05 07:57:00;;;;;;;2.92;1.63;;;13.90;99.90;;;;;;5086599;28;20056;-69
2023/06/05 07:59:27;;;;;;;2.92;1.70;;;13.90;99.90;;;;;;5086287;28;20460;-70
2023/06/05 08:01:54;;;;;;;2.60;1.45;;;13.90;99.90;;;;;;5086769;28;20123;-70
2023/06/05 08:04:19;;;;;;;2.78;1.27;;;14.00;99.90;;;;;;5086660;28;20403;-70
2023/06/05 08:06:45;;;;;;;2.65;1.27;;;14.00;99.90;;;;;;5085504;28;20046;-70
2023/06/05 08:09:12;;;;;;;2.13;1.30;;;14.00;99.90;;;;;;5086960;28;20293;-69
2023/06/05 08:11:38;;;;;;;3.85;1.65;;;14.00;99.90;;;;;;5086280;28;20048;-70
2023/06/05 08:14:07;;;;;;;5.30;2.15;;;14.10;99.90;;;;;;5085727;28;20036;-69
2023/06/05 08:16:34;;;;;;;3.00;1.58;;;14.10;99.90;;;;;;5086230;28;20040;-69
2023/06/05 08:19:00;;;;;;;3.45;2.10;;;14.20;99.90;;;;;;5117574;27;20075;-70
2023/06/05 08:21:25;;;;;;;2.67;1.98;;;14.30;99.90;;;;;;5085110;28;20098;-70
2023/06/05 08:23:51;;;;;;;2.75;1.30;;;14.30;99.90;;;;;;5086435;28;20036;-70
2023/06/05 08:26:19;;;;;;;1.88;1.45;;;14.30;99.90;;;;;;5084329;28;20369;-69
2023/06/05 08:28:45;;;;;;;1.77;1.20;;;14.40;99.90;;;;;;5064909;28;20519;-70
2023/06/05 08:31:11;;;;;;;3.28;1.88;;;14.40;99.90;;;;;;5066495;28;20080;-69
2023/06/05 08:33:37;;;;;;;2.83;1.58;;;14.40;99.90;;;;;;5066457;28;20119;-70
2023/06/05 08:36:05;;;;;;;3.33;2.00;;;14.50;99.90;;;;;;5066108;28;20135;-69
2023/06/05 08:38:31;;;;;;;2.00;1.30;;;14.50;99.90;;;;;;5084536;28;20076;-69
2023/06/05 08:41:05;;;;;;;2.05;1.42;;;14.50;99.90;;;;;;5086055;28;20383;-70
2023/06/05 08:43:32;;;;;;;3.20;1.30;;;14.50;99.90;;;;;;5084721;28;20121;-70
2023/06/05 08:45:57;;;;;;;2.53;1.60;;;14.60;99.90;;;;;;5086358;28;20080;-69
2023/06/05 08:48:25;;;;;;;2.20;1.50;;;14.60;99.90;;;;;;5085692;28;20036;-70
2023/06/05 08:50:51;;;;;;;3.47;1.42;;;14.60;99.90;;;;;;5085982;28;20117;-70
2023/06/05 08:53:20;;;;;;;4.68;1.40;;;14.50;99.90;;;;;;5085572;28;20109;-70
2023/06/05 08:55:47;;;;;;;2.20;1.65;;;14.60;99.90;;;;;;5085999;28;20101;-71
2023/06/05 08:58:13;;;;;;;2.70;1.70;;;14.60;99.90;;;;;;5085013;28;20048;-71
2023/06/05 09:00:40;;;;;;;3.78;1.95;;;14.60;99.90;;;;;;5086474;28;20028;-69
2023/06/05 09:03:12;;;;;;;2.47;1.38;;;14.60;99.90;;;;;;5085852;28;20132;-70
2023/06/05 09:05:38;;;;;;;5.80;2.03;;;14.60;99.90;;;;;;5086584;28;20040;-68
2023/06/05 09:08:03;;;;;;;2.50;1.70;;;14.70;99.90;;;;;;5084280;28;20048;-68
2023/06/05 09:10:30;;;;;;;2.70;1.40;;;14.70;99.90;;;;;;5093727;28;20036;-68
2023/06/05 09:12:58;;;;;;;5.32;1.80;;;14.80;99.90;;;;;;5104889;28;20061;-69
2023/06/05 09:15:29;;;;;;;4.22;1.90;;;14.90;99.90;;;;;;5090073;28;20044;-69
2023/06/05 09:18:11;;;;;;;4.18;1.65;;;14.90;99.90;;;;;;5084448;28;20224;-69
2023/06/05 09:20:47;;;;;;;4.55;1.90;;;15.00;99.90;;;;;;5086330;28;20032;-69
2023/06/05 09:23:27;;;;;;;3.40;1.88;;;15.00;99.90;;;;;;5085356;28;20101;-71
2023/06/05 09:25:54;;;;;;;2.47;1.73;;;15.10;99.90;;;;;;5118677;28;20122;-68
2023/06/05 09:28:20;;;;;;;3.28;1.60;;;15.20;99.90;;;;;;5084286;28;20347;-68
2023/06/05 09:31:03;;;;;;;4.55;2.00;;;15.20;99.90;;;;;;5067537;28;20054;-68
2023/06/05 09:33:30;;;;;;;2.97;1.95;;;15.30;99.90;;;;;;5083810;28;20260;-69
2023/06/05 09:36:05;;;;;;;4.20;2.03;;;15.30;99.90;;;;;;5089246;28;20121;-68
2023/06/05 09:38:31;;;;;;;4.22;2.47;;;15.30;99.90;;;;;;5089281;28;20099;-69
2023/06/05 09:41:04;;;;;;;3.55;1.90;;;15.20;99.90;;;;;;5089052;28;20044;-68
2023/06/05 09:43:30;;;;;;;5.95;2.00;;;15.20;99.90;;;;;;5086345;28;20036;-69
2023/06/05 09:45:56;;;;;;;2.97;1.75;;;15.10;99.90;;;;;;5089551;28;20047;-69
2023/06/05 09:48:22;;;;;;;3.63;2.30;;;15.20;99.90;;;;;;5088685;28;20032;-70
2023/06/05 09:50:47;;;;;;;4.47;1.80;;;15.20;99.90;;;;;;5089247;28;20047;-68
2023/06/05 09:53:18;;;;;;;4.18;1.80;;;15.10;99.90;;;;;;5088350;28;20067;-71
2023/06/05 09:55:44;;;;;;;5.20;1.67;;;15.10;99.90;;;;;;5088973;28;20044;-69
2023/06/05 09:58:14;;;;;;;3.35;1.83;;;15.20;99.90;;;;;;5121343;27;20400;-69
2023/06/05 10:00:41;;;;;;;3.42;2.33;;;15.20;99.90;;;;;;5087494;28;20040;-71
2023/06/05 10:03:13;;;;;;;4.93;2.55;;;15.20;99.90;;;;;;5102153;28;20048;-69
2023/06/05 10:05:42;;;;;;;4.20;2.38;;;15.20;99.90;;;;;;5094839;28;20427;-70
2023/06/05 10:08:08;;;;;;;4.78;2.10;;;15.20;99.90;;;;;;5104942;28;20043;-70
2023/06/05 10:10:35;;;;;;;4.63;2.00;;;15.20;99.90;;;;;;5089085;28;20039;-70
2023/06/05 10:13:01;;;;;;;3.47;1.85;;;15.20;99.90;;;;;;5075967;28;20047;-70
2023/06/05 10:15:28;;;;;;;4.82;2.08;;;15.30;99.90;;;;;;5087804;28;20044;-69
2023/06/05 10:17:54;;;;;;;2.33;1.10;;;15.40;99.90;;;;;;5105408;28;20031;-70
2023/06/05 10:20:21;;;;;;;5.15;2.22;;;15.40;99.90;;;;;;5096765;28;20067;-70
2023/06/05 10:22:49;;;;;;;3.95;1.65;;;15.50;99.90;;;;;;5102507;28;20035;-70
2023/06/05 10:25:18;;;;;;;2.20;1.50;;;15.50;99.90;;;;;;5092984;28;20044;-69
2023/06/05 10:27:58;;;;;;;5.10;2.58;;;15.50;99.90;;;;;;5103170;28;20040;-70
2023/06/05 10:30:55;;;;;;;4.28;2.25;;;15.60;99.90;;;;;;5095040;28;20039;-69
2023/06/05 10:33:43;;;;;;;5.15;1.95;;;15.60;99.90;;;;;;5068547;28;20040;-69
2023/06/05 10:36:39;;;;;;;3.42;1.70;;;15.60;99.90;;;;;;5095698;28;20051;-69
2023/06/05 10:39:12;;;;;;;2.17;1.50;;;15.50;99.90;;;;;;5108873;28;20054;-70
2023/06/05 10:41:38;;;;;;;3.42;1.50;;;15.50;99.90;;;;;;5093724;28;20040;-69
2023/06/05 10:44:04;;;;;;;3.42;1.88;;;15.50;99.90;;;;;;5087667;28;20563;-70
2023/06/05 10:46:34;;;;;;;6.45;2.20;;;15.50;99.90;;;;;;5069588;28;20048;-69
2023/06/05 10:49:26;;;;;;;4.13;1.52;;;15.60;99.90;;;;;;5088425;28;20259;-69
2023/06/05 10:51:53;;;;;;;5.32;2.00;;;15.70;99.90;;;;;;5084286;28;20055;-69
2023/06/05 10:54:22;;;;;;;4.07;1.92;;;15.70;99.90;;;;;;5107152;27;20040;-70
2023/06/05 10:56:53;;;;;;;3.30;1.77;;;15.70;99.90;;;;;;5074588;28;20536;-69
2023/06/05 10:59:23;;;;;;;3.72;1.83;;;15.70;99.90;;;;;;5084516;28;20050;-69
2023/06/05 11:02:05;;;;;;;3.13;1.73;;;15.70;99.90;;;;;;5085721;28;20036;-71
2023/06/05 11:05:00;;;;;;;5.63;1.85;;;15.80;99.90;;;;;;5114779;27;20058;-71
2023/06/05 11:07:28;;;;;;;3.17;1.98;;;15.80;99.90;;;;;;5036457;28;20127;-70
2023/06/05 11:10:05;;;;;;;3.47;1.92;;;15.80;99.90;;;;;;5059003;28;20048;-71
2023/06/05 11:12:43;;;;;;;4.00;1.77;;;15.80;99.90;;;;;;5069552;28;20786;-71
2023/06/05 11:15:08;;;;;;;3.67;1.83;;;15.90;99.90;;;;;;5086996;28;20515;-70
2023/06/05 11:17:36;;;;;;;4.57;2.00;;;15.90;99.90;;;;;;5087145;28;20063;-71
2023/06/05 11:20:09;;;;;;;3.58;1.88;;;15.90;99.90;;;;;;5087920;28;20098;-70
2023/06/05 11:22:55;;;;;;;3.20;1.70;;;16.00;99.90;;;;;;5086667;28;20047;-70
2023/06/05 11:25:21;;;;;;;3.78;1.92;;;16.00;99.90;;;;;;5119649;27;20431;-71
2023/06/05 11:27:49;;;;;;;5.10;1.95;;;16.00;99.90;;;;;;5086441;28;20134;-71
2023/06/05 11:30:17;;;;;;;4.72;1.73;;;16.00;99.90;;;;;;5085734;28;20105;-71
2023/06/05 11:32:43;;;;;;;3.22;2.08;;;16.00;99.90;;;;;;5087491;28;20109;-70
2023/06/05 11:35:10;;;;;;;3.90;2.05;;;16.00;99.90;;;;;;5087293;28;20051;-70
2023/06/05 11:37:37;;;;;;;2.95;2.00;;;16.00;99.90;;;;;;5086669;28;20059;-69
2023/06/05 11:40:09;;;;;;;3.05;1.70;;;16.00;99.90;;;;;;5083449;28;20073;-72
2023/06/05 11:42:38;;;;;;;4.18;1.55;;;15.90;99.90;;;;;;5082000;28;20375;-71
2023/06/05 11:45:14;;;;;;;3.38;1.42;;;16.00;99.90;;;;;;5087174;28;20048;-71
2023/06/05 11:47:40;;;;;;;5.55;2.65;;;16.00;99.90;;;;;;5087703;28;20162;-71
2023/06/05 11:50:10;;;;;;;5.05;2.20;;;16.00;99.90;;;;;;5087129;28;20095;-72
2023/06/05 11:52:36;;;;;;;3.83;1.90;;;16.00;99.90;;;;;;5086775;28;20059;-72
2023/06/05 11:55:12;;;;;;;3.38;1.88;;;16.00;99.90;;;;;;5085594;28;20104;-72
2023/06/05 11:57:46;;;;;;;5.03;2.30;;;16.10;99.90;;;;;;5084118;28;20048;-70
2023/06/05 12:00:13;;;;;;;3.00;2.00;;;16.10;99.90;;;;;;5120021;27;20452;-72
2023/06/05 12:02:42;;;;;;;3.65;2.03;;;16.20;99.90;;;;;;5085959;28;20044;-71
2023/06/05 12:05:11;;;;;;;4.70;1.73;;;16.20;99.90;;;;;;5086802;28;20068;-71
2023/06/05 12:07:39;;;;;;;3.15;2.08;;;16.20;99.90;;;;;;5086529;28;20127;-71
2023/06/05 12:10:06;;;;;;;5.80;2.30;;;16.20;99.90;;;;;;5086384;28;20055;-71
2023/06/05 12:12:33;;;;;;;4.82;2.63;;;16.30;99.90;;;;;;5085711;28;20051;-71
2023/06/05 12:15:14;;;;;;;3.17;2.00;;;16.30;99.90;;;;;;5086562;28;20097;-71
2023/06/05 12:17:40;;;;;;;6.47;2.78;;;16.40;99.90;;;;;;5087395;28;20040;-71
2023/06/05 12:20:07;;;;;;;3.58;2.20;;;16.40;99.90;;;;;;5086707;28;20492;-71
2023/06/05 12:22:35;;;;;;;5.65;2.65;;;16.40;99.90;;;;;;5086215;28;20051;-71
2023/06/05 12:25:28;;;;;;;3.22;1.80;;;16.40;99.90;;;;;;5086484;28;20040;-71
2023/06/05 12:27:55;;;;;;;3.90;2.60;;;16.40;99.90;;;;;;5081470;28;20089;-71
2023/06/05 12:30:20;;;;;;;3.80;1.92;;;16.40;99.90;;;;;;5110331;27;20043;-69
2023/06/05 12:32:48;;;;;;;3.15;1.95;;;16.40;99.90;;;;;;5086656;28;20075;-69
2023/06/05 12:35:21;;;;;;;5.05;2.45;;;16.40;99.90;;;;;;5085085;28;20040;-69
2023/06/05 12:37:51;;;;;;;5.00;2.55;;;16.40;99.90;;;;;;5085923;28;20059;-70
2023/06/05 12:40:20;;;;;;;5.50;2.47;;;16.50;99.90;;;;;;5084140;28;20504;-70
2023/06/05 12:42:47;;;;;;;6.10;2.72;;;16.40;99.90;;;;;;5082874;28;20181;-69
2023/06/05 12:45:13;;;;;;;7.07;2.55;;;16.50;99.90;;;;;;5084705;28;20063;-69
2023/06/05 12:47:40;;;;;;;4.60;2.17;;;16.40;99.90;;;;;;5085937;28;20070;-70
2023/06/05 12:50:10;;;;;;;5.40;3.17;;;16.40;99.90;;;;;;5085625;28;20048;-71
2023/06/05 12:52:36;;;;;;;5.90;2.20;;;16.50;99.90;;;;;;5084056;28;20382;-71
2023/06/05 12:55:03;;;;;;;4.63;2.30;;;16.50;99.90;;;;;;5085168;28;20079;-71
2023/06/05 12:57:28;;;;;;;4.35;2.38;;;16.40;99.90;;;;;;5084133;28;20454;-71
2023/06/05 12:59:55;;;;;;;6.05;2.58;;;16.40;99.90;;;;;;5086468;28;20070;-71
2023/06/05 13:02:21;;;;;;;12.02;3.28;;;16.50;99.90;;;;;;5085324;28;20094;-71
2023/06/05 13:04:47;;;;;;;5.40;3.03;;;16.40;99.90;;;;;;5083729;28;20046;-76
2023/06/05 13:07:12;;;;;;;5.13;2.25;;;16.50;99.90;;;;;;5084752;28;20032;-70